sensor_id;sensor_type;location;lat;lon;timestamp;pressure;altitude;pressure_sealevel;temperature;humidity
61573;BME280;47465;43.094;12.434;2023-01-23T00:01:48;98336.38;;;3.69;92.94
61573;BME280;47465;43.094;12.434;2023-01-23T00:04:15;98325.88;;;3.63;94.63
61573;BME280;47465;43.094;12.434;2023-01-23T00:06:41;98343.34;;;3.68;95.15
61573;BME280;47465;43.094;12.434;2023-01-23T00:09:08;98337.22;;;3.68;94.60
61573;BME280;47465;43.094;12.434;2023-01-23T00:11:34;98359.03;;;3.88;94.08
61573;BME280;47465;43.094;12.434;2023-01-23T00:14:01;98347.63;;;3.88;93.49
61573;BME280;47465;43.094;12.434;2023-01-23T00:16:29;98333.72;;;3.74;94.31
61573;BME280;47465;43.094;12.434;2023-01-23T00:18:56;98328.44;;;3.74;95.41
61573;BME280;47465;43.094;12.434;2023-01-23T00:21:26;98332.84;;;3.73;95.51
61573;BME280;47465;43.094;12.434;2023-01-23T00:23:53;98333.75;;;3.66;96.46
61573;BME280;47465;43.094;12.434;2023-01-23T00:26:21;98334.63;;;3.63;96.69
61573;BME280;47465;43.094;12.434;2023-01-23T00:28:48;98321.50;;;3.63;96.64
61573;BME280;47465;43.094;12.434;2023-01-23T00:31:17;98325.00;;;3.64;98.08
61573;BME280;47465;43.094;12.434;2023-01-23T00:33:44;98327.63;;;3.65;99.94
61573;BME280;47465;43.094;12.434;2023-01-23T00:36:11;98323.25;;;3.64;99.51
61573;BME280;47465;43.094;12.434;2023-01-23T00:38:39;98323.25;;;3.63;99.92
61573;BME280;47465;43.094;12.434;2023-01-23T00:41:06;98318.84;;;3.69;99.89
61573;BME280;47465;43.094;12.434;2023-01-23T00:43:32;98324.94;;;3.68;100.00
61573;BME280;47465;43.094;12.434;2023-01-23T00:45:58;98342.41;;;3.80;100.00
61573;BME280;47465;43.094;12.434;2023-01-23T00:48:24;98321.50;;;3.63;100.00
61573;BME280;47465;43.094;12.434;2023-01-23T00:50:50;98334.59;;;3.71;100.00
61573;BME280;47465;43.094;12.434;2023-01-23T00:53:16;98345.06;;;3.80;100.00
61573;BME280;47465;43.094;12.434;2023-01-23T00:55:44;98331.03;;;3.77;100.00
61573;BME280;47465;43.094;12.434;2023-01-23T00:58:10;98303.06;;;3.71;100.00
61573;BME280;47465;43.094;12.434;2023-01-23T01:00:36;98338.81;;;3.92;100.00
61573;BME280;47465;43.094;12.434;2023-01-23T01:03:03;98320.47;;;3.83;100.00
61573;BME280;47465;43.094;12.434;2023-01-23T01:05:29;98339.69;;;3.97;100.00
61573;BME280;47465;43.094;12.434;2023-01-23T01:07:55;98315.25;;;3.75;100.00
61573;BME280;47465;43.094;12.434;2023-01-23T01:10:21;98297.78;;;3.71;100.00
61573;BME280;47465;43.094;12.434;2023-01-23T01:12:48;98303.00;;;3.76;100.00
61573;BME280;47465;43.094;12.434;2023-01-23T01:15:14;98295.16;;;3.66;100.00
61573;BME280;47465;43.094;12.434;2023-01-23T01:17:40;98293.44;;;3.65;100.00
61573;BME280;47465;43.094;12.434;2023-01-23T01:20:07;98300.38;;;3.76;100.00
61573;BME280;47465;43.094;12.434;2023-01-23T01:22:33;98313.41;;;3.88;100.00
61573;BME280;47465;43.094;12.434;2023-01-23T01:24:59;98282.03;;;3.66;100.00
61573;BME280;47465;43.094;12.434;2023-01-23T01:27:27;98291.63;;;3.70;100.00
61573;BME280;47465;43.094;12.434;2023-01-23T01:29:54;98275.91;;;3.67;100.00
61573;BME280;47465;43.094;12.434;2023-01-23T01:32:20;98269.69;;;3.76;100.00
61573;BME280;47465;43.094;12.434;2023-01-23T01:34:46;98277.56;;;3.76;100.00
61573;BME280;47465;43.094;12.434;2023-01-23T01:37:12;98266.16;;;3.82;100.00
61573;BME280;47465;43.094;12.434;2023-01-23T01:39:38;98287.06;;;3.96;100.00
61573;BME280;47465;43.094;12.434;2023-01-23T01:42:04;98260.94;;;3.74;100.00
61573;BME280;47465;43.094;12.434;2023-01-23T01:44:51;98251.31;;;3.73;100.00
61573;BME280;47465;43.094;12.434;2023-01-23T01:47:18;98260.91;;;3.79;100.00
61573;BME280;47465;43.094;12.434;2023-01-23T01:49:44;98246.88;;;3.75;100.00
61573;BME280;47465;43.094;12.434;2023-01-23T01:52:12;98250.47;;;3.68;100.00
61573;BME280;47465;43.094;12.434;2023-01-23T01:54:42;98253.91;;;3.75;100.00
61573;BME280;47465;43.094;12.434;2023-01-23T01:57:10;98226.78;;;3.71;100.00
61573;BME280;47465;43.094;12.434;2023-01-23T01:59:38;98260.84;;;3.85;100.00
61573;BME280;47465;43.094;12.434;2023-01-23T02:02:08;98230.41;;;3.55;100.00
61573;BME280;47465;43.094;12.434;2023-01-23T02:04:40;98231.22;;;3.63;100.00
61573;BME280;47465;43.094;12.434;2023-01-23T02:07:10;98262.72;;;3.72;100.00
61573;BME280;47465;43.094;12.434;2023-01-23T02:09:39;98251.31;;;3.70;100.00
61573;BME280;47465;43.094;12.434;2023-01-23T02:12:06;98248.00;;;3.49;100.00
61573;BME280;47465;43.094;12.434;2023-01-23T02:14:32;98235.72;;;3.48;100.00
61573;BME280;47465;43.094;12.434;2023-01-23T02:16:58;98238.38;;;3.45;100.00
61573;BME280;47465;43.094;12.434;2023-01-23T02:19:46;98221.78;;;3.36;100.00
61573;BME280;47465;43.094;12.434;2023-01-23T02:22:25;98208.66;;;3.37;100.00
61573;BME280;47465;43.094;12.434;2023-01-23T02:24:55;98245.31;;;3.51;100.00
61573;BME280;47465;43.094;12.434;2023-01-23T02:27:24;98204.28;;;3.32;100.00
61573;BME280;47465;43.094;12.434;2023-01-23T02:29:50;98209.53;;;3.36;100.00
61573;BME280;47465;43.094;12.434;2023-01-23T02:32:18;98199.91;;;3.35;100.00
61573;BME280;47465;43.094;12.434;2023-01-23T02:34:45;98197.31;;;3.29;100.00
61573;BME280;47465;43.094;12.434;2023-01-23T02:37:11;98200.00;;;3.18;100.00
61573;BME280;47465;43.094;12.434;2023-01-23T02:39:38;98184.16;;;3.29;100.00
61573;BME280;47465;43.094;12.434;2023-01-23T02:42:05;98186.78;;;3.29;100.00
61573;BME280;47465;43.094;12.434;2023-01-23T02:44:33;98193.81;;;3.30;100.00
61573;BME280;47465;43.094;12.434;2023-01-23T02:47:00;98217.44;;;3.36;100.00
61573;BME280;47465;43.094;12.434;2023-01-23T02:49:27;98205.09;;;3.41;100.00
61573;BME280;47465;43.094;12.434;2023-01-23T02:51:54;98180.72;;;3.24;100.00
61573;BME280;47465;43.094;12.434;2023-01-23T02:54:20;98191.19;;;3.27;100.00
61573;BME280;47465;43.094;12.434;2023-01-23T02:56:47;98221.75;;;3.43;100.00
61573;BME280;47465;43.094;12.434;2023-01-23T02:59:13;98190.34;;;3.22;100.00
61573;BME280;47465;43.094;12.434;2023-01-23T03:02:32;98212.16;;;3.35;100.00
61573;BME280;47465;43.094;12.434;2023-01-23T03:04:58;98193.84;;;3.24;100.00
61573;BME280;47465;43.094;12.434;2023-01-23T03:07:23;98190.31;;;3.26;99.14
61573;BME280;47465;43.094;12.434;2023-01-23T03:09:49;98213.78;;;3.56;98.62
61573;BME280;47465;43.094;12.434;2023-01-23T03:12:15;98186.78;;;3.31;99.51
61573;BME280;47465;43.094;12.434;2023-01-23T03:14:41;98184.22;;;3.23;98.51
61573;BME280;47465;43.094;12.434;2023-01-23T03:17:07;98193.78;;;3.36;98.91
61573;BME280;47465;43.094;12.434;2023-01-23T03:19:37;98202.50;;;3.38;98.03
61573;BME280;47465;43.094;12.434;2023-01-23T03:22:03;98173.78;;;3.17;98.68
61573;BME280;47465;43.094;12.434;2023-01-23T03:24:29;98169.34;;;3.20;98.32
61573;BME280;47465;43.094;12.434;2023-01-23T03:26:55;98165.84;;;3.21;98.95
61573;BME280;47465;43.094;12.434;2023-01-23T03:29:23;98180.69;;;3.28;98.33
61573;BME280;47465;43.094;12.434;2023-01-23T03:32:23;98176.34;;;3.21;97.91
61573;BME280;47465;43.094;12.434;2023-01-23T03:34:50;98168.41;;;3.31;97.84
61573;BME280;47465;43.094;12.434;2023-01-23T03:37:16;98182.31;;;3.43;97.94
61573;BME280;47465;43.094;12.434;2023-01-23T03:39:44;98162.25;;;3.32;97.51
61573;BME280;47465;43.094;12.434;2023-01-23T03:42:43;98150.03;;;3.27;97.52
61573;BME280;47465;43.094;12.434;2023-01-23T03:45:08;98161.34;;;3.39;97.85
61573;BME280;47465;43.094;12.434;2023-01-23T03:47:35;98128.16;;;3.22;97.31
61573;BME280;47465;43.094;12.434;2023-01-23T03:50:01;98134.28;;;3.27;97.77
61573;BME280;47465;43.094;12.434;2023-01-23T03:52:27;98110.72;;;3.17;99.23
61573;BME280;47465;43.094;12.434;2023-01-23T03:54:52;98111.44;;;3.31;97.40
61573;BME280;47465;43.094;12.434;2023-01-23T03:57:18;98110.69;;;3.21;96.85
61573;BME280;47465;43.094;12.434;2023-01-23T03:59:46;98115.88;;;3.26;95.86
61573;BME280;47465;43.094;12.434;2023-01-23T04:02:12;98126.44;;;3.20;96.40
61573;BME280;47465;43.094;12.434;2023-01-23T04:04:38;98136.91;;;3.24;96.00
61573;BME280;47465;43.094;12.434;2023-01-23T04:07:04;98136.91;;;3.26;95.22
61573;BME280;47465;43.094;12.434;2023-01-23T04:09:30;98154.41;;;3.27;95.90
61573;BME280;47465;43.094;12.434;2023-01-23T04:11:57;98144.78;;;3.23;95.44
61573;BME280;47465;43.094;12.434;2023-01-23T04:14:24;98155.25;;;3.29;94.98
61573;BME280;47465;43.094;12.434;2023-01-23T04:16:52;98121.19;;;3.20;95.03
61573;BME280;47465;43.094;12.434;2023-01-23T04:19:18;98130.78;;;3.22;95.11
61573;BME280;47465;43.094;12.434;2023-01-23T04:21:45;98151.72;;;3.33;93.66
61573;BME280;47465;43.094;12.434;2023-01-23T04:24:11;98181.47;;;3.38;94.81
61573;BME280;47465;43.094;12.434;2023-01-23T04:26:37;98153.66;;;3.13;93.98
61573;BME280;47465;43.094;12.434;2023-01-23T04:29:03;98145.78;;;3.11;93.69
61573;BME280;47465;43.094;12.434;2023-01-23T04:31:29;98171.06;;;3.27;93.32
61573;BME280;47465;43.094;12.434;2023-01-23T04:33:57;98165.97;;;3.04;93.63
61573;BME280;47465;43.094;12.434;2023-01-23T04:36:23;98164.19;;;3.03;94.64
61573;BME280;47465;43.094;12.434;2023-01-23T04:38:48;98199.97;;;3.26;94.75
61573;BME280;47465;43.094;12.434;2023-01-23T04:41:18;98191.19;;;3.30;93.34
61573;BME280;47465;43.094;12.434;2023-01-23T04:43:48;98166.66;;;3.26;92.05
61573;BME280;47465;43.094;12.434;2023-01-23T04:46:13;98157.16;;;3.12;93.30
61573;BME280;47465;43.094;12.434;2023-01-23T04:48:39;98137.09;;;2.98;93.25
61573;BME280;47465;43.094;12.434;2023-01-23T04:51:07;98151.91;;;3.10;93.12
61573;BME280;47465;43.094;12.434;2023-01-23T04:53:33;98130.13;;;2.97;93.05
61573;BME280;47465;43.094;12.434;2023-01-23T04:55:59;98118.75;;;2.92;94.77
61573;BME280;47465;43.094;12.434;2023-01-23T04:58:25;98130.91;;;3.08;93.61
61573;BME280;47465;43.094;12.434;2023-01-23T05:00:51;98110.88;;;2.94;94.18
61573;BME280;47465;43.094;12.434;2023-01-23T05:03:17;98118.72;;;2.98;93.48
61573;BME280;47465;43.094;12.434;2023-01-23T05:05:43;98117.84;;;2.95;94.06
61573;BME280;47465;43.094;12.434;2023-01-23T05:08:10;98141.53;;;2.92;94.03
61573;BME280;47465;43.094;12.434;2023-01-23T05:10:37;98139.75;;;2.95;95.82
61573;BME280;47465;43.094;12.434;2023-01-23T05:13:03;98130.19;;;2.85;95.63
61573;BME280;47465;43.094;12.434;2023-01-23T05:15:29;98121.47;;;2.84;96.60
61573;BME280;47465;43.094;12.434;2023-01-23T05:17:55;98139.63;;;3.14;93.61
61573;BME280;47465;43.094;12.434;2023-01-23T05:20:21;98117.00;;;2.94;95.22
61573;BME280;47465;43.094;12.434;2023-01-23T05:22:48;98131.81;;;3.06;95.08
61573;BME280;47465;43.094;12.434;2023-01-23T05:25:19;98150.13;;;3.14;96.90
61573;BME280;47465;43.094;12.434;2023-01-23T05:27:45;98137.88;;;3.13;95.65
61573;BME280;47465;43.094;12.434;2023-01-23T05:30:11;98112.63;;;2.93;97.83
61573;BME280;47465;43.094;12.434;2023-01-23T05:32:37;98131.88;;;2.94;97.51
61573;BME280;47465;43.094;12.434;2023-01-23T05:35:03;98144.00;;;3.15;95.89
61573;BME280;47465;43.094;12.434;2023-01-23T05:37:29;98118.72;;;2.97;95.81
61573;BME280;47465;43.094;12.434;2023-01-23T05:39:55;98112.63;;;2.92;96.96
61573;BME280;47465;43.094;12.434;2023-01-23T05:42:23;98120.59;;;2.81;96.35
61573;BME280;47465;43.094;12.434;2023-01-23T05:44:49;98131.94;;;2.89;97.89
61573;BME280;47465;43.094;12.434;2023-01-23T05:47:15;98131.03;;;2.93;98.29
61573;BME280;47465;43.094;12.434;2023-01-23T05:49:40;98131.06;;;2.85;98.24
61573;BME280;47465;43.094;12.434;2023-01-23T05:52:06;98103.97;;;2.77;96.99
61573;BME280;47465;43.094;12.434;2023-01-23T05:54:32;98107.44;;;2.85;97.84
61573;BME280;47465;43.094;12.434;2023-01-23T05:56:58;98123.06;;;3.02;97.28
61573;BME280;47465;43.094;12.434;2023-01-23T05:59:26;98101.31;;;2.85;97.86
61573;BME280;47465;43.094;12.434;2023-01-23T06:01:52;98099.53;;;2.88;98.41
61573;BME280;47465;43.094;12.434;2023-01-23T06:04:17;98093.38;;;2.93;99.40
61573;BME280;47465;43.094;12.434;2023-01-23T06:06:43;98103.84;;;2.97;98.32
61573;BME280;47465;43.094;12.434;2023-01-23T06:09:10;98109.16;;;2.90;96.96
61573;BME280;47465;43.094;12.434;2023-01-23T06:11:36;98141.47;;;3.01;99.02
61573;BME280;47465;43.094;12.434;2023-01-23T06:14:02;98117.06;;;2.82;98.62
61573;BME280;47465;43.094;12.434;2023-01-23T06:16:30;98137.13;;;2.94;98.60
61573;BME280;47465;43.094;12.434;2023-01-23T06:18:55;98109.19;;;2.82;99.55
61573;BME280;47465;43.094;12.434;2023-01-23T06:21:21;98139.75;;;2.95;100.00
61573;BME280;47465;43.094;12.434;2023-01-23T06:23:47;98143.25;;;2.94;99.71
61573;BME280;47465;43.094;12.434;2023-01-23T06:26:13;98125.81;;;2.85;99.90
61573;BME280;47465;43.094;12.434;2023-01-23T06:28:39;98127.53;;;2.88;99.91
61573;BME280;47465;43.094;12.434;2023-01-23T06:31:05;98122.34;;;2.80;100.00
61573;BME280;47465;43.094;12.434;2023-01-23T06:33:35;98116.25;;;2.77;100.00
61573;BME280;47465;43.094;12.434;2023-01-23T06:36:03;98116.25;;;2.77;100.00
61573;BME280;47465;43.094;12.434;2023-01-23T06:38:29;98121.47;;;2.81;100.00
61573;BME280;47465;43.094;12.434;2023-01-23T06:40:56;98140.63;;;2.96;100.00
61573;BME280;47465;43.094;12.434;2023-01-23T06:43:23;98119.72;;;2.79;100.00
61573;BME280;47465;43.094;12.434;2023-01-23T06:45:49;98141.53;;;2.93;100.00
61573;BME280;47465;43.094;12.434;2023-01-23T06:48:15;98102.25;;;2.75;100.00
61573;BME280;47465;43.094;12.434;2023-01-23T06:50:43;98118.84;;;2.84;100.00
61573;BME280;47465;43.094;12.434;2023-01-23T06:53:13;98108.38;;;2.75;100.00
61573;BME280;47465;43.094;12.434;2023-01-23T07:05:43;98109.25;;;2.73;100.00
61573;BME280;47465;43.094;12.434;2023-01-23T07:08:09;98106.66;;;2.66;100.00
61573;BME280;47465;43.094;12.434;2023-01-23T07:10:36;98120.72;;;2.59;100.00
61573;BME280;47465;43.094;12.434;2023-01-23T07:13:03;98111.94;;;2.62;100.00
61573;BME280;47465;43.094;12.434;2023-01-23T07:15:29;98105.78;;;2.71;100.00
61573;BME280;47465;43.094;12.434;2023-01-23T07:17:56;98137.22;;;2.81;100.00
61573;BME280;47465;43.094;12.434;2023-01-23T07:20:22;98115.47;;;2.61;100.00
61573;BME280;47465;43.094;12.434;2023-01-23T07:22:53;98112.00;;;2.54;100.00
61573;BME280;47465;43.094;12.434;2023-01-23T07:25:19;98126.88;;;2.55;100.00
61573;BME280;47465;43.094;12.434;2023-01-23T07:27:45;98138.22;;;2.60;100.00
61573;BME280;47465;43.094;12.434;2023-01-23T07:30:23;98141.72;;;2.62;100.00
61573;BME280;47465;43.094;12.434;2023-01-23T07:32:50;98117.31;;;2.43;100.00
61573;BME280;47465;43.094;12.434;2023-01-23T07:35:16;98143.50;;;2.51;100.00
61573;BME280;47465;43.094;12.434;2023-01-23T07:37:42;98111.25;;;2.31;100.00
61573;BME280;47465;43.094;12.434;2023-01-23T07:40:11;98107.75;;;2.25;100.00
61573;BME280;47465;43.094;12.434;2023-01-23T07:42:38;98096.44;;;2.20;100.00
61573;BME280;47465;43.094;12.434;2023-01-23T07:45:05;98109.50;;;2.34;100.00
61573;BME280;47465;43.094;12.434;2023-01-23T07:47:31;98097.28;;;2.25;100.00
61573;BME280;47465;43.094;12.434;2023-01-23T07:49:57;98114.75;;;2.34;100.00
61573;BME280;47465;43.094;12.434;2023-01-23T07:52:23;98092.09;;;2.15;100.00
61573;BME280;47465;43.094;12.434;2023-01-23T07:54:49;98103.44;;;2.18;100.00
61573;BME280;47465;43.094;12.434;2023-01-23T07:57:16;98087.69;;;2.18;100.00
61573;BME280;47465;43.094;12.434;2023-01-23T07:59:42;98103.47;;;2.09;100.00
61573;BME280;47465;43.094;12.434;2023-01-23T08:02:08;98106.97;;;2.11;100.00
61573;BME280;47465;43.094;12.434;2023-01-23T08:04:35;98126.16;;;2.16;100.00
61573;BME280;47465;43.094;12.434;2023-01-23T08:07:01;98122.69;;;2.11;100.00
61573;BME280;47465;43.094;12.434;2023-01-23T08:09:27;98148.03;;;2.20;100.00
61573;BME280;47465;43.094;12.434;2023-01-23T08:11:53;98121.84;;;2.04;100.00
61573;BME280;47465;43.094;12.434;2023-01-23T08:14:20;98145.41;;;2.18;100.00
61573;BME280;47465;43.094;12.434;2023-01-23T08:16:47;98127.97;;;2.03;100.00
61573;BME280;47465;43.094;12.434;2023-01-23T08:19:14;98132.34;;;2.11;100.00
61573;BME280;47465;43.094;12.434;2023-01-23T08:21:39;98142.81;;;2.09;100.00
61573;BME280;47465;43.094;12.434;2023-01-23T08:24:06;98121.00;;;1.95;100.00
61573;BME280;47465;43.094;12.434;2023-01-23T08:26:32;98146.31;;;2.13;100.00
61573;BME280;47465;43.094;12.434;2023-01-23T08:28:59;98149.81;;;2.15;100.00
61573;BME280;47465;43.094;12.434;2023-01-23T08:31:26;98141.06;;;2.11;100.00
61573;BME280;47465;43.094;12.434;2023-01-23T08:33:52;98121.84;;;2.08;100.00
61573;BME280;47465;43.094;12.434;2023-01-23T08:36:18;98112.22;;;2.05;100.00
61573;BME280;47465;43.094;12.434;2023-01-23T08:38:44;98134.94;;;2.09;100.00
61573;BME280;47465;43.094;12.434;2023-01-23T08:41:10;98143.66;;;2.20;100.00
61573;BME280;47465;43.094;12.434;2023-01-23T08:43:36;98124.47;;;2.09;100.00
61573;BME280;47465;43.094;12.434;2023-01-23T08:46:03;98113.09;;;2.05;100.00
61573;BME280;47465;43.094;12.434;2023-01-23T08:48:30;98142.75;;;2.23;100.00
61573;BME280;47465;43.094;12.434;2023-01-23T08:50:59;98149.78;;;2.16;100.00
61573;BME280;47465;43.094;12.434;2023-01-23T08:53:26;98139.34;;;2.04;100.00
61573;BME280;47465;43.094;12.434;2023-01-23T08:55:52;98146.34;;;2.00;100.00
61573;BME280;47465;43.094;12.434;2023-01-23T08:58:17;98143.72;;;1.93;100.00
61573;BME280;47465;43.094;12.434;2023-01-23T09:00:46;98140.28;;;1.84;100.00
61573;BME280;47465;43.094;12.434;2023-01-23T09:03:12;98157.72;;;1.93;100.00
61573;BME280;47465;43.094;12.434;2023-01-23T09:05:40;98155.13;;;1.85;100.00
61573;BME280;47465;43.094;12.434;2023-01-23T09:08:06;98142.91;;;1.66;100.00
61573;BME280;47465;43.094;12.434;2023-01-23T09:10:31;98172.63;;;1.63;100.00
61573;BME280;47465;43.094;12.434;2023-01-23T09:12:57;98172.66;;;1.48;100.00
61573;BME280;47465;43.094;12.434;2023-01-23T09:15:23;98151.69;;;1.27;100.00
61573;BME280;47465;43.094;12.434;2023-01-23T09:17:49;98164.78;;;1.30;100.00
61573;BME280;47465;43.094;12.434;2023-01-23T09:20:16;98158.66;;;1.28;100.00
61573;BME280;47465;43.094;12.434;2023-01-23T09:22:43;98167.41;;;1.25;100.00
61573;BME280;47465;43.094;12.434;2023-01-23T09:25:10;98163.06;;;1.19;100.00
61573;BME280;47465;43.094;12.434;2023-01-23T09:27:36;98176.13;;;1.09;100.00
61573;BME280;47465;43.094;12.434;2023-01-23T09:30:03;98170.88;;;0.98;100.00
61573;BME280;47465;43.094;12.434;2023-01-23T09:32:31;98180.47;;;0.94;100.00
61573;BME280;47465;43.094;12.434;2023-01-23T09:34:57;98215.41;;;1.12;100.00
61573;BME280;47465;43.094;12.434;2023-01-23T09:37:23;98193.53;;;0.97;100.00
61573;BME280;47465;43.094;12.434;2023-01-23T09:39:50;98202.28;;;0.99;100.00
61573;BME280;47465;43.094;12.434;2023-01-23T09:42:19;98212.75;;;0.95;100.00
61573;BME280;47465;43.094;12.434;2023-01-23T09:44:49;98214.47;;;0.93;100.00
61573;BME280;47465;43.094;12.434;2023-01-23T09:47:21;98221.47;;;0.91;100.00
61573;BME280;47465;43.094;12.434;2023-01-23T09:49:55;98221.47;;;0.92;100.00
61573;BME280;47465;43.094;12.434;2023-01-23T09:52:26;98222.31;;;0.82;100.00
61573;BME280;47465;43.094;12.434;2023-01-23T09:54:58;98232.78;;;0.74;100.00
61573;BME280;47465;43.094;12.434;2023-01-23T09:57:32;98223.16;;;0.73;100.00
61573;BME280;47465;43.094;12.434;2023-01-23T10:00:03;98248.50;;;0.80;100.00
61573;BME280;47465;43.094;12.434;2023-01-23T10:02:30;98250.22;;;0.77;100.00
61573;BME280;47465;43.094;12.434;2023-01-23T10:04:59;98248.41;;;0.54;100.00
61573;BME280;47465;43.094;12.434;2023-01-23T10:07:40;98249.22;;;0.52;100.00
61573;BME280;47465;43.094;12.434;2023-01-23T10:10:36;98253.66;;;0.67;100.00
61573;BME280;47465;43.094;12.434;2023-01-23T10:13:07;98260.63;;;0.65;100.00
61573;BME280;47465;43.094;12.434;2023-01-23T10:18:32;98264.09;;;0.60;100.00
61573;BME280;47465;43.094;12.434;2023-01-23T10:21:08;98269.31;;;0.54;100.00
61573;BME280;47465;43.094;12.434;2023-01-23T10:23:47;98291.13;;;0.63;100.00
61573;BME280;47465;43.094;12.434;2023-01-23T10:26:22;98276.28;;;0.54;100.00
61573;BME280;47465;43.094;12.434;2023-01-23T10:28:53;98286.78;;;0.60;100.00
61573;BME280;47465;43.094;12.434;2023-01-23T10:31:29;98285.91;;;0.59;100.00
61573;BME280;47465;43.094;12.434;2023-01-23T10:34:03;98298.16;;;0.68;100.00
61573;BME280;47465;43.094;12.434;2023-01-23T10:36:45;98285.03;;;0.59;100.00
61573;BME280;47465;43.094;12.434;2023-01-23T10:39:18;98290.28;;;0.59;100.00
61573;BME280;47465;43.094;12.434;2023-01-23T10:41:46;98301.63;;;0.64;100.00
61573;BME280;47465;43.094;12.434;2023-01-23T10:44:15;98295.53;;;0.65;100.00
61573;BME280;47465;43.094;12.434;2023-01-23T10:46:46;98305.16;;;0.75;100.00
61573;BME280;47465;43.094;12.434;2023-01-23T10:49:26;98299.88;;;0.65;100.00
61573;BME280;47465;43.094;12.434;2023-01-23T10:51:53;98309.50;;;0.69;100.00
61573;BME280;47465;43.094;12.434;2023-01-23T10:54:20;98314.75;;;0.70;100.00
61573;BME280;47465;43.094;12.434;2023-01-23T10:56:54;98319.97;;;0.70;100.00
61573;BME280;47465;43.094;12.434;2023-01-23T10:59:29;98318.22;;;0.68;100.00
61573;BME280;47465;43.094;12.434;2023-01-23T11:02:02;98337.47;;;0.79;100.00
61573;BME280;47465;43.094;12.434;2023-01-23T11:04:30;98342.75;;;0.90;100.00
61573;BME280;47465;43.094;12.434;2023-01-23T11:07:05;98318.28;;;0.86;100.00
61573;BME280;47465;43.094;12.434;2023-01-23T11:09:32;98329.66;;;0.93;100.00
61573;BME280;47465;43.094;12.434;2023-01-23T11:12:01;98328.78;;;0.91;100.00
61573;BME280;47465;43.094;12.434;2023-01-23T11:14:27;98329.69;;;0.96;100.00
61573;BME280;47465;43.094;12.434;2023-01-23T11:17:13;98351.56;;;1.10;100.00
61573;BME280;47465;43.094;12.434;2023-01-23T11:19:41;98362.03;;;1.10;100.00
61573;BME280;47465;43.094;12.434;2023-01-23T11:22:25;98338.41;;;0.92;100.00
61573;BME280;47465;43.094;12.434;2023-01-23T11:24:52;98340.13;;;0.93;100.00
61573;BME280;47465;43.094;12.434;2023-01-23T11:27:21;98374.25;;;1.10;100.00
61573;BME280;47465;43.094;12.434;2023-01-23T11:30:18;98365.50;;;1.00;100.00
61573;BME280;47465;43.094;12.434;2023-01-23T11:32:54;98362.78;;;0.83;100.00
61573;BME280;47465;43.094;12.434;2023-01-23T11:35:27;98354.88;;;0.72;100.00
61573;BME280;47465;43.094;12.434;2023-01-23T11:37:55;98360.16;;;0.81;100.00
61573;BME280;47465;43.094;12.434;2023-01-23T11:40:21;98379.38;;;0.85;100.00
61573;BME280;47465;43.094;12.434;2023-01-23T11:42:49;98404.78;;;1.00;100.00
61573;BME280;47465;43.094;12.434;2023-01-23T11:45:28;98386.41;;;0.97;100.00
61573;BME280;47465;43.094;12.434;2023-01-23T11:48:09;98394.25;;;0.95;100.00
61573;BME280;47465;43.094;12.434;2023-01-23T11:50:44;98410.91;;;1.05;100.00
61573;BME280;47465;43.094;12.434;2023-01-23T11:53:19;98389.00;;;0.88;100.00
61573;BME280;47465;43.094;12.434;2023-01-23T11:56:02;98401.16;;;0.84;100.00
61573;BME280;47465;43.094;12.434;2023-01-23T12:01:33;98411.66;;;0.89;100.00
61573;BME280;47465;43.094;12.434;2023-01-23T12:04:39;98427.44;;;0.93;100.00
61573;BME280;47465;43.094;12.434;2023-01-23T12:07:15;98426.47;;;0.84;100.00
61573;BME280;47465;43.094;12.434;2023-01-23T12:09:48;98431.69;;;0.79;100.00
61573;BME280;47465;43.094;12.434;2023-01-23T12:12:26;98403.69;;;0.69;100.00
61573;BME280;47465;43.094;12.434;2023-01-23T12:15:02;98443.16;;;0.99;100.00
61573;BME280;47465;43.094;12.434;2023-01-23T12:17:37;98452.81;;;1.13;100.00
61573;BME280;47465;43.094;12.434;2023-01-23T12:20:26;98448.47;;;1.12;100.00
61573;BME280;47465;43.094;12.434;2023-01-23T12:23:07;98456.31;;;1.15;100.00
61573;BME280;47465;43.094;12.434;2023-01-23T12:25:35;98457.16;;;1.08;100.00
61573;BME280;47465;43.094;12.434;2023-01-23T12:28:15;98456.31;;;1.09;100.00
61573;BME280;47465;43.094;12.434;2023-01-23T12:31:04;98468.50;;;1.08;100.00
61573;BME280;47465;43.094;12.434;2023-01-23T12:33:55;98482.47;;;1.10;100.00
61573;BME280;47465;43.094;12.434;2023-01-23T12:36:45;98477.22;;;1.02;100.00
61573;BME280;47465;43.094;12.434;2023-01-23T12:39:24;98468.44;;;0.94;100.00
61573;BME280;47465;43.094;12.434;2023-01-23T12:41:58;98480.69;;;0.98;100.00
61573;BME280;47465;43.094;12.434;2023-01-23T12:44:34;98492.97;;;1.12;100.00
61573;BME280;47465;43.094;12.434;2023-01-23T12:47:10;98482.44;;;0.98;100.00
61573;BME280;47465;43.094;12.434;2023-01-23T12:49:41;98472.78;;;0.95;100.00
61573;BME280;47465;43.094;12.434;2023-01-23T12:52:14;98510.47;;;1.19;100.00
61573;BME280;47465;43.094;12.434;2023-01-23T12:54:42;98485.97;;;1.05;100.00
61573;BME280;47465;43.094;12.434;2023-01-23T12:57:12;98493.84;;;1.12;100.00
61573;BME280;47465;43.094;12.434;2023-01-23T12:59:54;98521.03;;;1.28;100.00
61573;BME280;47465;43.094;12.434;2023-01-23T13:02:33;98521.91;;;1.30;100.00
61573;BME280;47465;43.094;12.434;2023-01-23T13:05:14;98505.28;;;1.22;100.00
61573;BME280;47465;43.094;12.434;2023-01-23T13:08:23;98542.94;;;1.47;100.00
61573;BME280;47465;43.094;12.434;2023-01-23T13:11:03;98528.97;;;1.43;100.00
61573;BME280;47465;43.094;12.434;2023-01-23T13:14:16;98557.91;;;1.67;100.00
61573;BME280;47465;43.094;12.434;2023-01-23T13:16:48;98556.19;;;1.72;100.00
61573;BME280;47465;43.094;12.434;2023-01-23T13:19:22;98553.56;;;1.72;100.00
61573;BME280;47465;43.094;12.434;2023-01-23T13:22:25;98575.44;;;1.81;100.00